createdAt,value
2022-10-25T00:00:18.849Z,15.57
2022-10-25T00:02:40.452Z,15.50
2022-10-25T00:05:02.820Z,15.59
2022-10-25T00:07:24.342Z,15.47
2022-10-25T00:09:45.793Z,15.46
2022-10-25T00:12:08.038Z,15.56
2022-10-25T00:14:29.629Z,15.47
2022-10-25T00:16:51.205Z,15.54
2022-10-25T00:19:14.276Z,15.50
2022-10-25T00:21:35.759Z,15.28
2022-10-25T00:23:57.313Z,15.41
2022-10-25T00:26:20.319Z,15.27
2022-10-25T00:28:41.826Z,15.28
2022-10-25T00:31:06.051Z,15.42
2022-10-25T00:33:31.130Z,15.36
2022-10-25T00:35:52.628Z,15.12
2022-10-25T00:38:14.137Z,15.01
2022-10-25T00:40:35.607Z,14.91
2022-10-25T00:42:57.133Z,14.90
2022-10-25T00:45:20.850Z,14.92
2022-10-25T00:47:51.662Z,14.83
2022-10-25T00:50:29.219Z,14.85
2022-10-25T00:52:56.212Z,14.66
2022-10-25T00:55:20.533Z,14.52
2022-10-25T00:57:50.001Z,14.72
2022-10-25T01:00:11.941Z,14.66
2022-10-25T01:02:33.828Z,14.87
2022-10-25T01:04:55.816Z,14.98
2022-10-25T01:07:17.316Z,14.88
2022-10-25T01:09:40.336Z,14.96
2022-10-25T01:12:02.198Z,15.07
2022-10-25T01:14:24.226Z,15.05
2022-10-25T01:17:05.346Z,14.78
2022-10-25T01:19:51.639Z,14.58
2022-10-25T01:22:24.059Z,14.60
2022-10-25T01:25:08.462Z,14.69
2022-10-25T01:27:32.996Z,14.50
2022-10-25T01:30:20.249Z,14.44
2022-10-25T01:33:00.469Z,14.38
2022-10-25T01:35:38.166Z,14.27
2022-10-25T01:38:13.450Z,14.23
2022-10-25T01:40:37.728Z,14.29
2022-10-25T01:43:25.251Z,14.23
2022-10-25T01:45:56.881Z,14.09
2022-10-25T01:48:34.065Z,14.12
2022-10-25T01:50:55.666Z,14.08
2022-10-25T01:53:17.198Z,14.04
2022-10-25T01:55:59.327Z,14.02
2022-10-25T01:58:45.901Z,14.11
2022-10-25T02:01:29.449Z,14.10
2022-10-25T02:04:01.927Z,14.07
2022-10-25T02:06:39.021Z,13.89
2022-10-25T02:09:28.134Z,13.92
2022-10-25T02:11:51.961Z,13.85
2022-10-25T02:14:31.920Z,13.84
2022-10-25T02:17:18.673Z,13.77
2022-10-25T02:19:45.663Z,13.76
2022-10-25T02:22:12.292Z,13.72
2022-10-25T02:24:35.769Z,13.67
2022-10-25T02:26:59.569Z,13.70
2022-10-25T02:29:23.468Z,13.63
2022-10-25T02:31:45.618Z,13.55
2022-10-25T02:34:07.146Z,13.52
2022-10-25T02:36:28.714Z,13.50
2022-10-25T02:38:52.373Z,13.64
2022-10-25T02:41:13.929Z,13.59
2022-10-25T02:43:35.737Z,13.65
2022-10-25T02:45:57.246Z,13.54
2022-10-25T02:48:18.764Z,13.56
2022-10-25T02:50:40.239Z,13.71
2022-10-25T02:53:01.722Z,13.80
2022-10-25T02:55:23.213Z,13.88
2022-10-25T02:57:44.772Z,13.92
2022-10-25T03:00:07.833Z,13.76
2022-10-25T03:02:29.350Z,13.82
2022-10-25T03:04:50.904Z,13.92
2022-10-25T03:07:12.421Z,13.97
2022-10-25T03:09:33.917Z,13.93
2022-10-25T03:11:55.450Z,13.93
2022-10-25T03:14:16.974Z,13.83
2022-10-25T03:16:38.602Z,13.72
2022-10-25T03:19:00.171Z,13.74
2022-10-25T03:21:21.661Z,13.71
2022-10-25T03:23:43.146Z,13.70
2022-10-25T03:26:04.835Z,13.75
2022-10-25T03:28:27.565Z,13.83
2022-10-25T03:30:49.465Z,13.89
2022-10-25T03:33:10.984Z,13.84
2022-10-25T03:35:32.433Z,13.74
2022-10-25T03:37:54.222Z,13.76
2022-10-25T03:40:16.154Z,13.73
2022-10-25T03:42:37.600Z,13.62
2022-10-25T03:44:59.069Z,13.65
2022-10-25T03:47:20.562Z,13.68
2022-10-25T03:49:42.082Z,13.63
2022-10-25T03:52:06.107Z,13.59
2022-10-25T03:54:29.260Z,13.62
2022-10-25T03:56:51.008Z,13.65
2022-10-25T03:59:12.516Z,13.69
2022-10-25T04:01:34.172Z,13.73
2022-10-25T04:03:55.786Z,13.77
2022-10-25T04:06:17.263Z,13.85
2022-10-25T04:08:39.032Z,13.96
2022-10-25T04:11:00.623Z,14.02
2022-10-25T04:13:22.106Z,13.91
2022-10-25T04:15:43.623Z,13.92
2022-10-25T04:18:05.314Z,13.86
2022-10-25T04:20:26.858Z,13.94
2022-10-25T04:22:58.318Z,13.89
2022-10-25T04:25:19.786Z,13.91
2022-10-25T04:27:41.258Z,14.07
2022-10-25T04:30:03.109Z,14.07
2022-10-25T04:32:24.604Z,13.95
2022-10-25T04:34:46.088Z,13.97
2022-10-25T04:37:07.681Z,13.96
2022-10-25T04:39:29.164Z,14.08
2022-10-25T04:41:50.629Z,14.20
2022-10-25T04:44:12.148Z,14.16
2022-10-25T04:46:33.858Z,14.08
2022-10-25T04:48:55.391Z,14.12
2022-10-25T04:51:16.919Z,14.19
2022-10-25T04:53:38.759Z,14.24
2022-10-25T04:56:05.775Z,14.38
2022-10-25T04:58:31.238Z,14.29
2022-10-25T05:00:54.579Z,14.52
2022-10-25T05:03:16.127Z,14.30
2022-10-25T05:05:37.606Z,14.33
2022-10-25T05:07:59.073Z,14.38
2022-10-25T05:10:20.672Z,14.36
2022-10-25T05:12:42.386Z,14.40
2022-10-25T05:15:04.929Z,14.33
2022-10-25T05:17:26.497Z,14.25
2022-10-25T05:19:47.956Z,14.35
2022-10-25T05:22:09.468Z,14.31
2022-10-25T05:24:31.010Z,14.41
2022-10-25T05:26:52.514Z,14.26
2022-10-25T05:29:14.032Z,14.28
2022-10-25T05:31:35.588Z,14.26
2022-10-25T05:34:01.510Z,14.19
2022-10-25T05:36:23.591Z,14.19
2022-10-25T05:38:45.332Z,14.08
2022-10-25T05:41:08.491Z,14.05
2022-10-25T05:43:30.079Z,13.89
2022-10-25T05:45:52.158Z,13.93
2022-10-25T05:48:13.786Z,14.05
2022-10-25T05:50:35.398Z,14.05
2022-10-25T05:52:56.941Z,14.19
2022-10-25T05:55:18.457Z,14.16
2022-10-25T05:57:39.987Z,14.22
2022-10-25T06:00:01.602Z,14.14
2022-10-25T06:02:23.187Z,14.03
2022-10-25T06:04:47.840Z,13.90
2022-10-25T06:07:11.854Z,13.86
2022-10-25T06:09:33.393Z,14.02
2022-10-25T06:11:54.891Z,13.87
2022-10-25T06:14:16.368Z,13.90
2022-10-25T06:16:38.296Z,13.99
2022-10-25T06:18:59.860Z,14.06
2022-10-25T06:21:24.104Z,14.03
2022-10-25T06:23:46.824Z,14.10
2022-10-25T06:26:14.369Z,14.27
2022-10-25T06:28:36.688Z,14.40
2022-10-25T06:31:04.500Z,14.46
2022-10-25T06:33:28.023Z,14.35
2022-10-25T06:35:54.993Z,14.33
2022-10-25T06:38:16.450Z,14.42
2022-10-25T06:40:39.070Z,14.67
2022-10-25T06:43:00.560Z,14.50
2022-10-25T06:45:23.411Z,14.52
2022-10-25T06:47:47.891Z,14.45
2022-10-25T06:50:09.504Z,14.58
2022-10-25T06:52:30.964Z,14.58
2022-10-25T06:54:52.443Z,14.42
2022-10-25T06:57:14.587Z,14.58
2022-10-25T06:59:36.145Z,14.49
2022-10-25T07:01:57.842Z,14.82
2022-10-25T07:04:19.406Z,14.90
2022-10-25T07:06:40.985Z,14.92
2022-10-25T07:09:02.539Z,14.98
2022-10-25T07:11:25.878Z,15.06
2022-10-25T07:13:47.692Z,15.15
2022-10-25T07:16:11.589Z,15.13
2022-10-25T07:18:34.258Z,15.12
2022-10-25T07:21:02.152Z,15.24
2022-10-25T07:23:23.637Z,15.30
2022-10-25T07:25:45.866Z,15.20
2022-10-25T07:28:07.419Z,15.25
2022-10-25T07:30:28.885Z,15.27
2022-10-25T07:32:50.352Z,15.45
2022-10-25T07:35:11.840Z,15.56
2022-10-25T07:37:33.309Z,15.65
2022-10-25T07:39:54.783Z,15.49
2022-10-25T07:42:16.296Z,15.68
2022-10-25T07:44:37.838Z,15.59
2022-10-25T07:46:59.334Z,15.60
2022-10-25T07:49:20.910Z,15.48
2022-10-25T07:51:42.402Z,15.44
2022-10-25T07:54:04.146Z,15.21
2022-10-25T07:56:25.721Z,15.17
2022-10-25T07:58:47.220Z,15.23
2022-10-25T08:01:10.596Z,15.16
2022-10-25T08:03:32.752Z,15.21
2022-10-25T08:05:54.338Z,15.10
2022-10-25T08:08:16.018Z,15.17
2022-10-25T08:10:37.510Z,15.24
2022-10-25T08:12:59.045Z,15.22
2022-10-25T08:15:20.533Z,15.39
2022-10-25T08:17:42.041Z,15.64
2022-10-25T08:20:04.130Z,15.76
2022-10-25T08:22:25.631Z,15.78
2022-10-25T08:24:47.138Z,15.60
2022-10-25T08:27:08.692Z,15.69
2022-10-25T08:29:30.184Z,15.84
2022-10-25T08:31:51.669Z,15.61
2022-10-25T08:34:13.149Z,15.78
2022-10-25T08:36:34.636Z,15.61
2022-10-25T08:38:56.101Z,15.53
2022-10-25T08:41:56.299Z,15.50
2022-10-25T08:44:50.890Z,15.60
2022-10-25T08:47:26.936Z,15.70
2022-10-25T08:49:58.383Z,15.83
2022-10-25T08:52:32.288Z,15.68
2022-10-25T08:54:59.306Z,15.73
2022-10-25T08:57:30.654Z,15.75
2022-10-25T08:59:56.662Z,15.85
2022-10-25T09:02:32.336Z,15.86
2022-10-25T09:04:54.913Z,15.90
2022-10-25T09:08:04.939Z,15.66
2022-10-25T09:10:45.385Z,15.65
2022-10-25T09:13:19.770Z,15.86
2022-10-25T09:15:46.914Z,16.03
2022-10-25T09:18:17.520Z,16.06
2022-10-25T09:20:49.163Z,15.92
2022-10-25T09:26:05.339Z,16.01
2022-10-25T09:28:57.710Z,16.17
2022-10-25T09:31:24.485Z,16.16
2022-10-25T09:33:47.641Z,16.33
2022-10-25T09:36:11.908Z,16.34
2022-10-25T09:38:44.075Z,16.55
2022-10-25T09:41:08.970Z,16.64
2022-10-25T09:43:36.576Z,16.76
2022-10-25T09:46:03.769Z,17.03
2022-10-25T09:48:28.272Z,16.81
2022-10-25T09:51:01.112Z,16.69
2022-10-25T09:53:24.267Z,16.56
2022-10-25T09:55:55.115Z,16.67
2022-10-25T09:58:31.885Z,16.69
2022-10-25T10:00:55.922Z,16.85
2022-10-25T10:03:18.713Z,16.62
2022-10-25T10:05:46.489Z,16.58
2022-10-25T10:08:08.799Z,16.49
2022-10-25T10:10:34.638Z,16.42
2022-10-25T10:13:08.369Z,16.52
2022-10-25T10:15:34.368Z,16.74
2022-10-25T10:18:22.296Z,16.82
2022-10-25T10:20:57.523Z,16.77
2022-10-25T10:23:19.108Z,16.70
2022-10-25T10:25:45.585Z,16.74
2022-10-25T10:28:15.159Z,16.91
2022-10-25T10:30:38.922Z,16.81
2022-10-25T10:33:01.805Z,16.78
2022-10-25T10:35:30.997Z,16.90
2022-10-25T10:37:52.481Z,16.71
2022-10-25T10:40:19.859Z,16.91
2022-10-25T10:42:42.756Z,16.96
2022-10-25T10:45:13.248Z,17.12
2022-10-25T10:47:50.141Z,17.15
2022-10-25T10:50:23.470Z,17.08
2022-10-25T10:52:46.961Z,17.33
2022-10-25T10:55:39.617Z,17.69
2022-10-25T10:58:20.140Z,17.57
2022-10-25T11:00:52.470Z,17.61
2022-10-25T11:03:53.492Z,17.68
2022-10-25T11:06:30.004Z,17.73
2022-10-25T11:09:17.913Z,17.62
2022-10-25T11:11:40.375Z,17.79
2022-10-25T11:14:07.763Z,17.91
2022-10-25T11:16:47.689Z,17.94
2022-10-25T11:19:27.729Z,17.77
2022-10-25T11:22:07.688Z,17.58
2022-10-25T11:24:35.049Z,17.49
2022-10-25T11:26:59.680Z,17.54
2022-10-25T11:29:34.096Z,17.75
2022-10-25T11:32:33.241Z,17.74
2022-10-25T11:35:23.995Z,17.62
2022-10-25T11:38:15.340Z,17.95
2022-10-25T11:40:45.579Z,18.00
2022-10-25T11:43:39.079Z,17.97
2022-10-25T11:46:17.423Z,18.25
2022-10-25T11:49:06.299Z,18.08
2022-10-25T11:51:43.344Z,18.05
2022-10-25T11:54:22.101Z,18.14
2022-10-25T11:56:57.775Z,18.04
2022-10-25T11:59:37.995Z,18.17
2022-10-25T12:02:33.683Z,17.78
2022-10-25T12:05:17.576Z,17.61
2022-10-25T12:07:51.853Z,17.22
2022-10-25T12:10:36.180Z,17.30
2022-10-25T12:13:02.831Z,17.31
2022-10-25T12:15:35.432Z,17.47
2022-10-25T12:17:56.978Z,17.53
2022-10-25T12:20:24.404Z,17.44
2022-10-25T12:22:49.922Z,17.44
2022-10-25T12:25:26.414Z,17.44
2022-10-25T12:27:56.560Z,17.70
2022-10-25T12:30:18.850Z,17.59
2022-10-25T12:32:54.060Z,17.52
2022-10-25T12:35:52.931Z,17.73
2022-10-25T12:38:37.541Z,17.82
2022-10-25T12:41:04.660Z,17.67
2022-10-25T12:43:37.534Z,17.93
2022-10-25T12:46:13.301Z,18.04
2022-10-25T12:49:03.276Z,17.90
2022-10-25T12:51:30.483Z,17.93
2022-10-25T12:54:19.456Z,18.06
2022-10-25T12:57:07.814Z,17.98
2022-10-25T13:00:01.859Z,17.77
2022-10-25T13:02:42.339Z,17.81
2022-10-25T13:05:30.481Z,17.99
2022-10-25T13:07:56.824Z,18.01
2022-10-25T13:10:22.231Z,17.84
2022-10-25T13:13:05.476Z,18.06
2022-10-25T13:15:40.170Z,18.05
2022-10-25T13:18:07.696Z,18.09
2022-10-25T13:20:35.320Z,18.08
2022-10-25T13:22:56.797Z,17.96
2022-10-25T13:25:43.836Z,18.01
2022-10-25T13:28:14.499Z,17.97
2022-10-25T13:30:36.040Z,17.67
2022-10-25T13:33:19.354Z,17.71
2022-10-25T13:35:40.799Z,17.45
2022-10-25T13:38:12.244Z,17.30
2022-10-25T13:40:34.368Z,17.39
2022-10-25T13:43:15.124Z,17.46
2022-10-25T13:45:42.993Z,17.58
2022-10-25T13:48:13.664Z,17.44
2022-10-25T13:50:47.526Z,17.36
2022-10-25T13:53:26.197Z,17.18
2022-10-25T13:56:14.409Z,17.10
2022-10-25T13:58:48.245Z,16.95
2022-10-25T14:01:15.732Z,16.84
2022-10-25T14:04:08.723Z,16.73
2022-10-25T14:06:40.815Z,16.83
2022-10-25T14:09:37.463Z,16.90
2022-10-25T14:12:01.895Z,16.99
2022-10-25T14:14:26.381Z,17.23
2022-10-25T14:17:03.928Z,17.44
2022-10-25T14:20:00.805Z,17.48
2022-10-25T14:22:41.781Z,17.37
2022-10-25T14:25:08.192Z,17.46
2022-10-25T14:27:33.084Z,17.10
2022-10-25T14:30:11.176Z,16.98
2022-10-25T14:32:32.947Z,17.05
2022-10-25T14:34:54.480Z,17.16
2022-10-25T14:37:16.063Z,17.25
2022-10-25T14:39:52.283Z,17.13
2022-10-25T14:42:17.855Z,17.05
2022-10-25T14:44:49.043Z,17.10
2022-10-25T14:47:27.877Z,17.09
2022-10-25T14:49:49.413Z,17.04
2022-10-25T14:52:10.920Z,16.94
2022-10-25T14:54:34.647Z,16.87
2022-10-25T14:57:06.066Z,17.06
2022-10-25T15:00:01.310Z,16.89
2022-10-25T15:02:37.104Z,16.76
2022-10-25T15:05:00.808Z,16.94
2022-10-25T15:07:43.943Z,16.95
2022-10-25T15:12:34.721Z,16.95
2022-10-25T15:14:59.304Z,17.01
2022-10-25T15:17:29.452Z,16.88
2022-10-25T15:20:28.409Z,17.03
2022-10-25T15:22:50.907Z,16.96
2022-10-25T15:25:22.919Z,16.89
2022-10-25T15:27:44.757Z,16.91
2022-10-25T15:30:06.672Z,16.72
2022-10-25T15:32:28.270Z,16.89
2022-10-25T15:34:51.847Z,17.01
2022-10-25T15:37:15.647Z,17.06
2022-10-25T15:39:37.180Z,16.85
2022-10-25T15:41:58.697Z,16.82
2022-10-25T15:44:20.219Z,16.92
2022-10-25T15:46:41.843Z,17.01
2022-10-25T15:49:11.432Z,17.06
2022-10-25T15:51:34.354Z,16.96
2022-10-25T15:53:55.846Z,17.07
2022-10-25T15:56:20.075Z,17.11
2022-10-25T15:58:41.530Z,17.04
2022-10-25T16:01:03.106Z,17.00
2022-10-25T16:03:24.986Z,17.03
2022-10-25T16:05:46.482Z,16.99
2022-10-25T16:08:08.960Z,16.95
2022-10-25T16:10:31.847Z,16.94
2022-10-25T16:12:59.522Z,16.83
2022-10-25T16:15:21.203Z,16.75
2022-10-25T16:17:43.366Z,16.70
2022-10-25T16:20:15.848Z,16.61
2022-10-25T16:22:37.320Z,16.42
2022-10-25T16:24:58.773Z,16.48
2022-10-25T16:27:20.274Z,16.15
2022-10-25T16:29:41.843Z,16.01
2022-10-25T16:32:05.334Z,15.95
2022-10-25T16:34:26.838Z,15.84
2022-10-25T16:36:50.385Z,15.93
2022-10-25T16:39:12.168Z,15.80
2022-10-25T16:41:33.760Z,15.74
2022-10-25T16:43:56.058Z,15.69
2022-10-25T16:46:18.264Z,15.69
2022-10-25T16:48:39.932Z,15.66
2022-10-25T16:51:01.632Z,15.49
2022-10-25T16:53:23.133Z,15.35
2022-10-25T16:55:44.661Z,15.26
2022-10-25T16:58:06.108Z,15.27
2022-10-25T17:00:29.067Z,15.17
2022-10-25T17:02:50.983Z,15.12
2022-10-25T17:05:19.207Z,15.10
2022-10-25T17:07:43.146Z,15.04
2022-10-25T17:10:04.894Z,15.00
2022-10-25T17:12:26.406Z,14.96
2022-10-25T17:14:47.876Z,14.91
2022-10-25T17:17:09.518Z,14.84
2022-10-25T17:19:31.133Z,14.73
2022-10-25T17:21:52.773Z,14.77
2022-10-25T17:24:16.257Z,14.77
2022-10-25T17:26:38.732Z,14.66
2022-10-25T17:29:01.041Z,14.78
2022-10-25T17:31:22.540Z,14.48
2022-10-25T17:33:44.256Z,14.49
2022-10-25T17:36:17.607Z,14.50
2022-10-25T17:38:39.740Z,14.46
2022-10-25T17:41:01.273Z,14.36
2022-10-25T17:43:22.745Z,14.11
2022-10-25T17:45:44.888Z,14.27
2022-10-25T17:48:06.758Z,14.23
2022-10-25T17:50:28.260Z,14.20
2022-10-25T17:52:53.445Z,14.15
2022-10-25T17:55:15.072Z,14.19
2022-10-25T17:57:36.514Z,14.11
2022-10-25T17:59:58.538Z,13.99
2022-10-25T18:02:20.030Z,13.72
2022-10-25T18:05:01.167Z,13.85
2022-10-25T18:07:25.699Z,13.61
2022-10-25T18:09:47.393Z,13.75
2022-10-25T18:12:09.645Z,13.79
2022-10-25T18:14:31.473Z,13.75
2022-10-25T18:16:52.977Z,13.70
2022-10-25T18:19:14.953Z,13.69
2022-10-25T18:21:36.416Z,13.69
2022-10-25T18:24:00.226Z,13.72
2022-10-25T18:26:21.723Z,13.36
2022-10-25T18:28:43.277Z,13.18
2022-10-25T18:31:10.151Z,13.26
2022-10-25T18:33:33.598Z,13.31
2022-10-25T18:36:19.350Z,13.31
2022-10-25T18:38:41.866Z,13.23
2022-10-25T18:41:19.192Z,13.21
2022-10-25T18:43:41.005Z,13.24
2022-10-25T18:46:02.481Z,13.21
2022-10-25T18:48:24.224Z,13.00
2022-10-25T18:50:45.701Z,12.88
2022-10-25T18:53:07.358Z,12.94
2022-10-25T18:55:28.950Z,12.77
2022-10-25T18:57:50.857Z,12.75
2022-10-25T19:00:13.413Z,12.76
2022-10-25T19:02:37.797Z,12.75
2022-10-25T19:04:59.566Z,12.76
2022-10-25T19:07:21.076Z,12.73
2022-10-25T19:09:42.563Z,12.74
2022-10-25T19:12:04.315Z,12.67
2022-10-25T19:14:25.784Z,12.63
2022-10-25T19:16:47.316Z,12.50
2022-10-25T19:19:08.789Z,12.50
2022-10-25T19:21:30.305Z,12.43
2022-10-25T19:23:54.156Z,12.34
2022-10-25T19:26:19.005Z,12.35
2022-10-25T19:28:40.487Z,12.32
2022-10-25T19:31:10.521Z,12.27
2022-10-25T19:33:32.194Z,12.29
2022-10-25T19:35:53.678Z,12.26
2022-10-25T19:38:15.195Z,12.15
2022-10-25T19:40:36.712Z,12.20
2022-10-25T19:42:58.287Z,12.20
2022-10-25T19:45:19.869Z,12.24
2022-10-25T19:47:41.429Z,12.24
2022-10-25T19:50:06.020Z,12.16
2022-10-25T19:52:27.483Z,12.16
2022-10-25T19:54:49.117Z,12.01
2022-10-25T19:57:10.671Z,11.96
2022-10-25T19:59:33.584Z,11.99
2022-10-25T20:01:55.120Z,11.98
2022-10-25T20:04:16.752Z,11.89
2022-10-25T20:06:38.264Z,11.82
2022-10-25T20:09:01.437Z,11.83
2022-10-25T20:11:24.152Z,11.75
2022-10-25T20:13:45.827Z,11.81
2022-10-25T20:16:08.161Z,11.76
2022-10-25T20:18:35.092Z,11.68
2022-10-25T20:20:59.496Z,11.53
2022-10-25T20:23:20.972Z,11.39
2022-10-25T20:25:43.006Z,11.44
2022-10-25T20:28:06.161Z,11.52
2022-10-25T20:30:28.142Z,11.50
2022-10-25T20:32:49.621Z,11.38
2022-10-25T20:35:11.078Z,11.32
2022-10-25T20:37:32.559Z,11.24
2022-10-25T20:39:53.990Z,11.01
2022-10-25T20:42:17.747Z,11.13
2022-10-25T20:44:39.201Z,11.13
2022-10-25T20:47:00.696Z,11.18
2022-10-25T20:49:22.161Z,11.17
2022-10-25T20:51:43.643Z,11.22
2022-10-25T20:54:09.481Z,11.20
2022-10-25T20:56:31.827Z,11.23
2022-10-25T20:58:53.306Z,11.23
2022-10-25T21:01:16.841Z,11.26
2022-10-25T21:03:39.126Z,11.20
2022-10-25T21:06:03.812Z,11.14
2022-10-25T21:08:25.927Z,11.18
2022-10-25T21:10:52.792Z,11.14
2022-10-25T21:13:14.331Z,11.19
2022-10-25T21:15:36.476Z,11.21
2022-10-25T21:17:57.982Z,11.19
2022-10-25T21:20:19.680Z,11.25
2022-10-25T21:22:42.513Z,11.16
2022-10-25T21:25:04.209Z,11.06
2022-10-25T21:27:25.676Z,10.94
2022-10-25T21:29:47.200Z,11.03
2022-10-25T21:32:08.945Z,10.77
2022-10-25T21:34:30.430Z,10.79
2022-10-25T21:36:51.953Z,10.81
2022-10-25T21:39:15.481Z,10.89
2022-10-25T21:41:37.024Z,10.75
2022-10-25T21:43:58.767Z,10.81
2022-10-25T21:46:21.696Z,10.63
2022-10-25T21:48:44.008Z,10.62
2022-10-25T21:51:05.606Z,10.53
2022-10-25T21:53:27.529Z,10.35
2022-10-25T21:55:49.018Z,10.44
2022-10-25T21:58:10.608Z,10.31
2022-10-25T22:00:32.125Z,10.33
2022-10-25T22:02:53.592Z,10.27
2022-10-25T22:05:15.144Z,10.20
2022-10-25T22:07:36.614Z,10.24
2022-10-25T22:09:58.062Z,10.24
2022-10-25T22:12:19.529Z,10.24
2022-10-25T22:14:40.994Z,10.27
2022-10-25T22:17:02.476Z,10.29
2022-10-25T22:21:50.856Z,10.28
2022-10-25T22:24:13.089Z,10.32
2022-10-25T22:26:35.425Z,10.25
2022-10-25T22:28:59.189Z,10.27
2022-10-25T22:31:21.509Z,10.10
2022-10-25T22:33:44.332Z,10.04
2022-10-25T22:36:11.699Z,10.09
2022-10-25T22:38:33.516Z,10.15
2022-10-25T22:40:59.748Z,10.10
2022-10-25T22:43:21.216Z,10.15
2022-10-25T22:45:42.680Z,10.18
2022-10-25T22:48:04.237Z,10.11
2022-10-25T22:50:25.741Z,9.90
2022-10-25T22:52:48.615Z,9.96
2022-10-25T22:55:10.453Z,10.02
2022-10-25T22:57:32.055Z,9.84
2022-10-25T22:59:53.515Z,9.92
2022-10-25T23:02:15.004Z,9.92
2022-10-25T23:04:36.471Z,9.82
2022-10-25T23:06:58.048Z,9.74
2022-10-25T23:09:19.538Z,9.80
2022-10-25T23:11:41.542Z,9.87
2022-10-25T23:14:03.663Z,9.89
2022-10-25T23:16:25.521Z,9.80
2022-10-25T23:18:47.013Z,9.85
2022-10-25T23:21:15.759Z,9.73
2022-10-25T23:23:38.748Z,9.78
2022-10-25T23:26:00.873Z,9.81
2022-10-25T23:28:22.481Z,9.88
2022-10-25T23:30:48.674Z,9.98
2022-10-25T23:33:11.692Z,9.79
2022-10-25T23:35:34.667Z,9.85
2022-10-25T23:37:56.313Z,9.85
2022-10-25T23:40:17.809Z,9.85
2022-10-25T23:42:39.327Z,9.74
2022-10-25T23:45:03.200Z,9.75
2022-10-25T23:47:24.638Z,9.74
2022-10-25T23:49:46.068Z,9.80
2022-10-25T23:52:07.551Z,9.77
2022-10-25T23:54:29.006Z,9.83
2022-10-25T23:56:50.478Z,9.78
2022-10-25T23:59:12.013Z,9.84
